W0QQ Weather Reports


Display with metric or nautical units.
time (UTC)temp
F
wind
direction
speed
MPH
gust
MPH
rain 1hr
in
rain 24hr
in
rain mn
in
humidity
%
barometer
mb
20240522144522 62 33 0.0 6.0 0.00 0.01 0.00 76 1014.2
20240522143114 62 20 1.0 9.0 0.00 0.01 0.00 77 1014.3
20240522141524 62 16 1.0 5.0 0.00 0.01 0.00 76 1014.0
20240522140109 60 24 1.0 4.0 0.00 0.01 0.00 75 1012.9
20240522134530 60 307 0.0 3.0 0.00 0.01 0.00 78 1013.3
20240522133112 60 16 2.0 5.0 0.00 0.01 0.00 82 1013.4
20240522131524 58 278 0.0 4.0 0.00 0.01 0.00 86 1013.8
20240522130114 58 282 2.0 4.0 0.00 0.01 0.00 87 1013.9
20240522124525 57 270 0.0 2.0 0.00 0.01 0.00 87 1013.3
20240522123118 56 272 0.0 0.0 0.00 0.01 0.00 90 1013.0
20240522121528 56 272 0.0 0.0 0.00 0.01 0.00 90 1013.2
20240522120115 55 272 0.0 0.0 0.00 0.01 0.00 89 1013.1
20240522114529 55 274 0.0 0.0 0.00 0.01 0.00 88 1013.2
20240522113120 55 282 2.0 4.0 0.00 0.01 0.00 88 1014.0
20240522111538 55 274 1.0 4.0 0.00 0.01 0.00 88 1013.9
20240522110128 55 270 2.0 4.0 0.00 0.01 0.00 89 1013.9
20240522104546 54 269 2.0 6.0 0.00 0.01 0.00 90 1013.8
20240522103013 54 297 1.0 5.0 0.00 0.01 0.00 90 1013.5
20240522101608 55 282 2.0 4.0 0.00 0.01 0.00 90 1012.9
20240522100025 55 282 1.0 4.0 0.00 0.01 0.00 89 1012.4
20240522094612 55 278 2.0 4.0 0.00 0.01 0.00 89 1012.3
20240522093048 56 297 1.0 5.0 0.00 0.01 0.00 87 1012.1
20240522091627 56 280 1.0 6.0 0.00 0.01 0.00 88 1011.9
20240522090050 56 294 1.0 5.0 0.00 0.01 0.00 87 1011.3
20240522084502 57 298 1.0 5.0 0.00 0.01 0.00 87 1011.1
20240522083101 57 276 2.0 7.0 0.00 0.01 0.00 87 1010.7
20240522081640 57 293 3.0 6.0 0.00 0.01 0.00 87 1010.4
20240522080058 57 317 0.0 4.0 0.00 0.01 0.00 86 1010.0
20240522074516 57 297 0.0 1.0 0.00 0.01 0.00 87 1009.4
20240522073105 57 297 0.0 2.0 0.00 0.01 0.00 88 1009.7
20240522071528 56 284 0.0 0.0 0.00 0.01 0.00 88 1009.8
20240522070119 57 284 0.0 1.0 0.00 0.01 0.00 85 1009.6
20240522064537 59 305 1.0 4.0 0.00 0.01 0.00 84 1010.3
20240522063126 59 282 2.0 7.0 0.00 0.01 0.00 83 1010.2
20240522061542 60 295 1.0 4.0 0.00 0.01 0.00 83 1010.0
20240522060131 60 346 1.0 6.0 0.00 0.01 0.00 83 1009.9
20240522054544 60 265 3.0 9.0 0.00 0.01 0.00 82 1010.2
20240522053004 61 272 1.0 6.0 0.00 0.01 0.00 82 1010.3
20240522051550 61 303 2.0 8.0 0.00 0.01 0.00 81 1010.2
20240522050003 61 280 3.0 10.0 0.00 0.01 0.01 82 1010.0
20240522044605 61 286 3.0 7.0 0.00 0.01 0.01 83 1009.7
20240522043025 61 271 2.0 4.0 0.00 0.01 0.01 83 1009.2
20240522041559 61 278 2.0 7.0 0.00 0.01 0.01 82 1009.0
20240522040015 61 278 2.0 4.0 0.00 0.01 0.01 81 1008.9
20240522034607 62 274 2.0 4.0 0.00 0.01 0.01 81 1008.8
20240522033021 62 283 1.0 3.0 0.00 0.01 0.01 81 1008.7
20240522031610 62 280 1.0 3.0 0.00 0.01 0.01 82 1008.6
20240522030025 63 283 0.0 3.0 0.00 0.01 0.01 80 1008.2
20240522024615 63 289 1.0 3.0 0.00 0.01 0.01 80 1008.1
20240522023030 64 288 0.0 3.0 0.00 0.01 0.01 80 1007.9
20240522021616 64 280 1.0 4.0 0.00 0.01 0.01 77 1007.7
20240522020038 64 307 0.0 2.0 0.00 0.01 0.01 77 1007.3
20240522014620 65 287 1.0 4.0 0.00 0.01 0.01 75 1006.8
20240522013041 66 310 1.0 10.0 0.00 0.01 0.01 73 1006.5
20240522011612 67 292 1.0 10.0 0.00 0.01 0.01 71 1006.3
20240522010039 68 292 3.0 12.0 0.00 0.01 0.01 70 1006.1
20240522004606 68 330 3.0 12.0 0.00 0.01 0.01 71 1005.7
20240522003023 68 253 2.0 15.0 0.00 0.01 0.01 71 1005.5
20240522001613 69 287 5.0 20.0 0.00 0.01 0.01 69 1004.6
20240522000030 69 322 6.0 16.0 0.00 0.01 0.01 70 1004.3
20240521234611 69 313 11.0 23.0 0.00 0.01 0.01 70 1004.2
20240521233055 70 43 5.0 18.0 0.00 0.01 0.01 70 1003.6
20240521231515 72 272 8.0 20.0 0.00 0.01 0.01 69 1003.3
20240521230118 72 275 9.0 24.0 0.00 0.01 0.01 69 1002.8
20240521224538 73 285 8.0 24.0 0.00 0.01 0.01 68 1002.6
20240521223116 73 278 8.0 21.0 0.00 0.01 0.01 69 1002.2
20240521221533 75 256 11.0 23.0 0.00 0.01 0.01 65 1001.6
20240521220124 76 299 14.0 29.0 0.00 0.01 0.01 63 1001.4
20240521214534 77 209 10.0 30.0 0.00 0.01 0.01 64 1000.8
20240521213124 78 273 13.0 33.0 0.00 0.01 0.01 65 1000.5
20240521211538 79 238 14.0 28.0 0.00 0.01 0.01 64 1000.0
20240521210129 81 276 11.0 28.0 0.01 0.01 0.01 62 999.1
20240521204541 81 240 10.0 33.0 0.01 0.01 0.01 64 998.4
20240521203131 81 275 16.0 35.0 0.01 0.01 0.01 60 998.5
20240521201547 78 328 6.0 20.0 0.01 0.01 0.01 84 997.6
20240521200133 82 171 8.0 29.0 0.00 0.00 0.00 73 996.9
20240521194600 83 208 11.0 29.0 0.00 0.00 0.00 72 998.6
20240521193010 83 200 12.0 26.0 0.00 0.00 0.00 73 999.0
20240521191554 83 190 12.0 26.0 0.00 0.00 0.00 71 999.2
20240521190010 83 203 10.0 23.0 0.00 0.00 0.00 75 999.2
20240521184608 83 218 9.0 25.0 0.00 0.00 0.00 74 999.2
20240521183014 82 160 9.0 20.0 0.00 0.00 0.00 75 999.2
20240521181612 82 196 13.0 29.0 0.00 0.00 0.00 75 999.3
20240521180032 81 138 10.0 25.0 0.00 0.00 0.00 76 999.1
20240521174618 81 228 7.0 22.0 0.00 0.00 0.00 76 999.2
20240521173040 81 197 11.0 33.0 0.00 0.00 0.00 73 998.7
20240521171620 81 191 9.0 27.0 0.00 0.00 0.00 74 999.3
20240521170039 81 183 9.0 25.0 0.00 0.00 0.00 76 999.3
20240521164626 80 172 5.0 23.0 0.00 0.00 0.00 77 999.4
20240521163042 80 200 8.0 27.0 0.00 0.00 0.00 76 999.5
20240521161618 79 239 10.0 28.0 0.00 0.00 0.00 78 999.8
20240521160035 78 175 9.0 24.0 0.00 0.00 0.00 79 999.9
20240521154619 77 201 5.0 18.0 0.00 0.00 0.00 80 1000.0
20240521153038 76 175 6.0 19.0 0.00 0.00 0.00 81 1000.2
20240521151628 76 221 8.0 17.0 0.00 0.00 0.00 81 1000.4
20240521150042 76 236 8.0 19.0 0.00 0.00 0.00 80 1000.7